TimeCST,TemperatureF,Dew PointF,Humidity,Sea Level PressureIn,VisibilityMPH,Wind Direction,Wind SpeedMPH,Gust SpeedMPH,PrecipitationIn,Events,Conditions,WindDirDegrees,DateUTC
12:55 AM,42.3,30.6,63,30.20,10.0,NW,5.8,-,N/A,,Clear,320,2013-01-20 06:55:00
1:55 AM,40.8,29.8,65,30.21,10.0,NW,4.6,-,N/A,,Clear,310,2013-01-20 07:55:00
2:55 AM,38.5,29.7,71,30.23,10.0,NW,6.9,-,N/A,,Clear,320,2013-01-20 08:55:00
3:55 AM,37.0,29.8,75,30.25,10.0,NNW,9.2,-,N/A,,Clear,340,2013-01-20 09:55:00
4:55 AM,35.2,24.4,65,30.25,10.0,NNW,9.2,-,N/A,,Clear,340,2013-01-20 10:55:00
5:55 AM,32.7,20.3,60,30.25,10.0,North,9.2,-,N/A,,Clear,360,2013-01-20 11:55:00
6:55 AM,30.6,17.8,59,30.27,10.0,NNW,6.9,-,N/A,,Clear,340,2013-01-20 12:55:00
7:55 AM,29.8,17.2,59,30.29,10.0,North,5.8,-,N/A,,Clear,360,2013-01-20 13:55:00
8:55 AM,32.2,18.5,57,30.30,10.0,NNE,6.9,-,N/A,,Clear,20,2013-01-20 14:55:00
9:55 AM,34.5,16.2,47,30.32,10.0,North,6.9,-,N/A,,Clear,10,2013-01-20 15:55:00
10:55 AM,36.9,15.6,42,30.30,10.0,Calm,Calm,-,N/A,,Scattered Clouds,0,2013-01-20 16:55:00
11:55 AM,39.6,13.8,35,30.27,10.0,East,4.6,-,N/A,,Partly Cloudy,90,2013-01-20 17:55:00
12:55 PM,41.5,13.8,32,30.24,10.0,Variable,4.6,-,N/A,,Clear,0,2013-01-20 18:55:00
1:55 PM,43.5,13.5,30,30.22,10.0,Variable,4.6,-,N/A,,Clear,0,2013-01-20 19:55:00
2:55 PM,43.7,12.0,28,30.23,10.0,Calm,Calm,-,N/A,,Clear,0,2013-01-20 20:55:00
3:55 PM,42.4,11.7,29,30.23,10.0,ENE,3.5,-,N/A,,Clear,60,2013-01-20 21:55:00
4:55 PM,40.8,13.6,33,30.24,10.0,North,6.9,-,N/A,,Clear,10,2013-01-20 22:55:00
5:55 PM,36.1,17.1,46,30.25,10.0,NNE,5.8,-,N/A,,Clear,20,2013-01-20 23:55:00
6:55 PM,33.1,12.0,42,30.26,10.0,NNE,6.9,-,N/A,,Clear,20,2013-01-21 00:55:00
7:55 PM,30.2,14.2,51,30.27,10.0,North,10.4,-,N/A,,Clear,360,2013-01-21 01:55:00
8:55 PM,28.2,14.5,57,30.28,10.0,North,10.4,-,N/A,,Clear,10,2013-01-21 02:55:00
9:55 PM,27.0,13.3,56,30.31,10.0,North,9.2,-,N/A,,Clear,360,2013-01-21 03:55:00
10:55 PM,24.6,12.9,61,30.32,10.0,North,8.1,-,N/A,,Clear,350,2013-01-21 04:55:00
11:55 PM,22.8,13.1,66,30.31,10.0,NNW,4.6,-,N/A,,Partly Cloudy,340,2013-01-21 05:55:00